Terminal Aerodrome Forecast
Issued by NWS Shreveport, LA

Home | Current Version | Previous Version | Text Only | Print | Product List | Glossary On
Versions: 1 2 3 4 5 6 7 8 9 10 11 12 13 14 15 16 17
920
FTUS44 KSHV 272346
TAFSHV
TAF
KSHV 272346Z 2800/2824 19012KT P6SM SCT040
     FM280900 19007KT P6SM VCSH BKN025
      TEMPO 2810/2813 5SM -TSRA BR OVC015CB
     FM281500 21012G20KT P6SM SCT040 OVC150
     FM282100 21012KT P6SM VCTS OVC050CB=

USA.gov is the U.S. government's official web portal to all federal, state and local government web resources and services.